sensor_id;sensor_type;location;lat;lon;timestamp;P1;durP1;ratioP1;P2;durP2;ratioP2
48805;SDS011;34625;47.176;27.548;2023-03-01T00:01:11;10.73;;;6.35;;
48805;SDS011;34625;47.176;27.548;2023-03-01T00:03:39;10.15;;;7.35;;
48805;SDS011;34625;47.176;27.548;2023-03-01T00:06:05;10.88;;;7.00;;
48805;SDS011;34625;47.176;27.548;2023-03-01T00:08:31;9.85;;;7.10;;
48805;SDS011;34625;47.176;27.548;2023-03-01T00:13:35;9.60;;;6.82;;
48805;SDS011;34625;47.176;27.548;2023-03-01T00:16:11;9.13;;;6.53;;
48805;SDS011;34625;47.176;27.548;2023-03-01T00:18:39;12.13;;;8.30;;
48805;SDS011;34625;47.176;27.548;2023-03-01T00:21:06;11.20;;;7.70;;
48805;SDS011;34625;47.176;27.548;2023-03-01T00:23:33;13.65;;;8.48;;
48805;SDS011;34625;47.176;27.548;2023-03-01T00:26:00;13.70;;;8.75;;
48805;SDS011;34625;47.176;27.548;2023-03-01T00:28:26;17.08;;;8.30;;
48805;SDS011;34625;47.176;27.548;2023-03-01T00:30:52;10.98;;;8.05;;
48805;SDS011;34625;47.176;27.548;2023-03-01T00:33:19;16.45;;;8.65;;
48805;SDS011;34625;47.176;27.548;2023-03-01T00:35:45;12.98;;;7.65;;
48805;SDS011;34625;47.176;27.548;2023-03-01T00:38:11;14.63;;;8.45;;
48805;SDS011;34625;47.176;27.548;2023-03-01T00:40:37;14.07;;;8.20;;
48805;SDS011;34625;47.176;27.548;2023-03-01T00:43:03;14.40;;;8.60;;
48805;SDS011;34625;47.176;27.548;2023-03-01T00:45:29;12.27;;;8.77;;
48805;SDS011;34625;47.176;27.548;2023-03-01T00:47:57;12.63;;;8.60;;
48805;SDS011;34625;47.176;27.548;2023-03-01T00:50:23;13.18;;;8.45;;
48805;SDS011;34625;47.176;27.548;2023-03-01T00:52:54;13.25;;;8.38;;
48805;SDS011;34625;47.176;27.548;2023-03-01T00:55:20;13.65;;;8.73;;
48805;SDS011;34625;47.176;27.548;2023-03-01T00:57:47;13.45;;;8.40;;
48805;SDS011;34625;47.176;27.548;2023-03-01T01:00:13;12.57;;;8.05;;
48805;SDS011;34625;47.176;27.548;2023-03-01T01:02:40;12.75;;;8.35;;
48805;SDS011;34625;47.176;27.548;2023-03-01T01:05:06;16.08;;;7.72;;
48805;SDS011;34625;47.176;27.548;2023-03-01T01:07:32;15.90;;;8.93;;
48805;SDS011;34625;47.176;27.548;2023-03-01T01:09:58;12.82;;;9.13;;
48805;SDS011;34625;47.176;27.548;2023-03-01T01:12:24;13.50;;;8.32;;
48805;SDS011;34625;47.176;27.548;2023-03-01T01:14:50;13.18;;;8.15;;
48805;SDS011;34625;47.176;27.548;2023-03-01T01:17:16;12.57;;;8.63;;
48805;SDS011;34625;47.176;27.548;2023-03-01T01:19:42;13.13;;;8.07;;
48805;SDS011;34625;47.176;27.548;2023-03-01T01:22:08;13.85;;;7.97;;
48805;SDS011;34625;47.176;27.548;2023-03-01T01:24:34;13.95;;;8.20;;
48805;SDS011;34625;47.176;27.548;2023-03-01T01:27:00;14.25;;;8.15;;
48805;SDS011;34625;47.176;27.548;2023-03-01T01:29:26;10.82;;;7.70;;
48805;SDS011;34625;47.176;27.548;2023-03-01T01:31:52;13.45;;;8.52;;
48805;SDS011;34625;47.176;27.548;2023-03-01T01:34:19;14.07;;;8.02;;
48805;SDS011;34625;47.176;27.548;2023-03-01T01:36:48;14.43;;;8.43;;
48805;SDS011;34625;47.176;27.548;2023-03-01T01:39:15;12.32;;;7.63;;
48805;SDS011;34625;47.176;27.548;2023-03-01T01:41:41;10.80;;;7.60;;
48805;SDS011;34625;47.176;27.548;2023-03-01T01:44:28;13.88;;;8.38;;
48805;SDS011;34625;47.176;27.548;2023-03-01T01:46:58;15.40;;;8.38;;
48805;SDS011;34625;47.176;27.548;2023-03-01T01:49:43;14.40;;;7.97;;
48805;SDS011;34625;47.176;27.548;2023-03-01T01:52:14;12.55;;;9.07;;
48805;SDS011;34625;47.176;27.548;2023-03-01T01:57:35;15.00;;;8.27;;
48805;SDS011;34625;47.176;27.548;2023-03-01T02:02:38;15.88;;;9.10;;
48805;SDS011;34625;47.176;27.548;2023-03-01T02:05:09;13.07;;;8.38;;
48805;SDS011;34625;47.176;27.548;2023-03-01T02:07:42;11.82;;;8.20;;
48805;SDS011;34625;47.176;27.548;2023-03-01T02:10:08;13.07;;;9.10;;
48805;SDS011;34625;47.176;27.548;2023-03-01T02:12:35;17.45;;;8.57;;
48805;SDS011;34625;47.176;27.548;2023-03-01T02:15:03;16.67;;;8.60;;
48805;SDS011;34625;47.176;27.548;2023-03-01T02:17:30;16.52;;;9.40;;
48805;SDS011;34625;47.176;27.548;2023-03-01T02:22:40;14.25;;;8.80;;
48805;SDS011;34625;47.176;27.548;2023-03-01T02:30:49;12.38;;;8.30;;
48805;SDS011;34625;47.176;27.548;2023-03-01T02:33:36;12.68;;;7.95;;
48805;SDS011;34625;47.176;27.548;2023-03-01T02:36:05;13.27;;;8.60;;
48805;SDS011;34625;47.176;27.548;2023-03-01T02:38:35;14.25;;;9.13;;
48805;SDS011;34625;47.176;27.548;2023-03-01T02:41:01;14.95;;;9.55;;
48805;SDS011;34625;47.176;27.548;2023-03-01T02:43:31;13.98;;;8.45;;
48805;SDS011;34625;47.176;27.548;2023-03-01T02:45:59;14.63;;;9.40;;
48805;SDS011;34625;47.176;27.548;2023-03-01T02:48:38;14.93;;;8.13;;
48805;SDS011;34625;47.176;27.548;2023-03-01T02:57:01;11.95;;;8.38;;
48805;SDS011;34625;47.176;27.548;2023-03-01T02:59:31;15.88;;;8.68;;
48805;SDS011;34625;47.176;27.548;2023-03-01T03:02:18;12.75;;;8.65;;
48805;SDS011;34625;47.176;27.548;2023-03-01T03:05:08;15.77;;;8.77;;
48805;SDS011;34625;47.176;27.548;2023-03-01T03:07:40;14.88;;;9.15;;
48805;SDS011;34625;47.176;27.548;2023-03-01T03:10:10;16.85;;;9.27;;
48805;SDS011;34625;47.176;27.548;2023-03-01T03:12:40;16.40;;;9.27;;
48805;SDS011;34625;47.176;27.548;2023-03-01T03:15:08;15.45;;;9.43;;
48805;SDS011;34625;47.176;27.548;2023-03-01T03:17:37;14.82;;;10.45;;
48805;SDS011;34625;47.176;27.548;2023-03-01T03:20:05;13.70;;;8.93;;
48805;SDS011;34625;47.176;27.548;2023-03-01T03:22:37;16.17;;;10.02;;
48805;SDS011;34625;47.176;27.548;2023-03-01T03:25:05;16.27;;;10.70;;
48805;SDS011;34625;47.176;27.548;2023-03-01T03:27:39;15.33;;;9.73;;
48805;SDS011;34625;47.176;27.548;2023-03-01T03:30:07;15.73;;;9.57;;
48805;SDS011;34625;47.176;27.548;2023-03-01T03:32:41;17.10;;;10.20;;
48805;SDS011;34625;47.176;27.548;2023-03-01T03:37:56;16.02;;;10.43;;
48805;SDS011;34625;47.176;27.548;2023-03-01T03:40:32;17.17;;;10.82;;
48805;SDS011;34625;47.176;27.548;2023-03-01T03:42:59;15.35;;;10.10;;
48805;SDS011;34625;47.176;27.548;2023-03-01T03:45:26;15.88;;;10.77;;
48805;SDS011;34625;47.176;27.548;2023-03-01T03:47:53;17.95;;;11.32;;
48805;SDS011;34625;47.176;27.548;2023-03-01T03:50:19;16.90;;;11.05;;
48805;SDS011;34625;47.176;27.548;2023-03-01T03:52:45;16.83;;;11.55;;
48805;SDS011;34625;47.176;27.548;2023-03-01T03:55:11;21.45;;;11.73;;
48805;SDS011;34625;47.176;27.548;2023-03-01T03:57:38;18.33;;;11.40;;
48805;SDS011;34625;47.176;27.548;2023-03-01T04:00:07;17.45;;;11.75;;
48805;SDS011;34625;47.176;27.548;2023-03-01T04:02:40;18.80;;;10.82;;
48805;SDS011;34625;47.176;27.548;2023-03-01T04:05:07;20.08;;;11.50;;
48805;SDS011;34625;47.176;27.548;2023-03-01T04:07:35;19.40;;;12.30;;
48805;SDS011;34625;47.176;27.548;2023-03-01T04:10:02;19.90;;;11.90;;
48805;SDS011;34625;47.176;27.548;2023-03-01T04:12:32;17.17;;;11.48;;
48805;SDS011;34625;47.176;27.548;2023-03-01T04:15:02;21.88;;;13.30;;
48805;SDS011;34625;47.176;27.548;2023-03-01T04:17:42;19.05;;;12.00;;
48805;SDS011;34625;47.176;27.548;2023-03-01T04:20:10;19.45;;;12.55;;
48805;SDS011;34625;47.176;27.548;2023-03-01T04:22:38;20.77;;;12.38;;
48805;SDS011;34625;47.176;27.548;2023-03-01T04:25:05;20.08;;;12.68;;
48805;SDS011;34625;47.176;27.548;2023-03-01T04:27:34;23.92;;;13.10;;
48805;SDS011;34625;47.176;27.548;2023-03-01T04:30:02;19.92;;;12.40;;
48805;SDS011;34625;47.176;27.548;2023-03-01T04:32:29;22.92;;;13.10;;
48805;SDS011;34625;47.176;27.548;2023-03-01T04:34:55;26.27;;;15.02;;
48805;SDS011;34625;47.176;27.548;2023-03-01T04:37:21;22.52;;;14.32;;
48805;SDS011;34625;47.176;27.548;2023-03-01T04:39:47;23.52;;;14.45;;
48805;SDS011;34625;47.176;27.548;2023-03-01T04:42:16;25.75;;;15.70;;
48805;SDS011;34625;47.176;27.548;2023-03-01T04:44:43;22.35;;;13.35;;
48805;SDS011;34625;47.176;27.548;2023-03-01T04:47:09;26.58;;;15.45;;
48805;SDS011;34625;47.176;27.548;2023-03-01T04:49:35;25.10;;;15.20;;
48805;SDS011;34625;47.176;27.548;2023-03-01T04:52:01;24.52;;;14.85;;
48805;SDS011;34625;47.176;27.548;2023-03-01T04:54:33;23.63;;;14.95;;
48805;SDS011;34625;47.176;27.548;2023-03-01T04:57:00;23.98;;;15.57;;
48805;SDS011;34625;47.176;27.548;2023-03-01T04:59:27;27.13;;;16.85;;
48805;SDS011;34625;47.176;27.548;2023-03-01T05:01:55;24.95;;;15.43;;
48805;SDS011;34625;47.176;27.548;2023-03-01T05:04:22;26.33;;;15.20;;
48805;SDS011;34625;47.176;27.548;2023-03-01T05:06:49;23.40;;;14.73;;
48805;SDS011;34625;47.176;27.548;2023-03-01T05:09:15;29.20;;;16.40;;
48805;SDS011;34625;47.176;27.548;2023-03-01T05:11:41;25.25;;;16.17;;
48805;SDS011;34625;47.176;27.548;2023-03-01T05:14:08;25.33;;;14.95;;
48805;SDS011;34625;47.176;27.548;2023-03-01T05:16:35;30.55;;;16.17;;
48805;SDS011;34625;47.176;27.548;2023-03-01T05:19:02;25.63;;;15.52;;
48805;SDS011;34625;47.176;27.548;2023-03-01T05:21:39;24.80;;;14.75;;
48805;SDS011;34625;47.176;27.548;2023-03-01T05:24:25;25.08;;;14.85;;
48805;SDS011;34625;47.176;27.548;2023-03-01T05:26:52;26.50;;;16.13;;
48805;SDS011;34625;47.176;27.548;2023-03-01T05:29:19;26.88;;;14.50;;
48805;SDS011;34625;47.176;27.548;2023-03-01T05:31:51;26.98;;;15.48;;
48805;SDS011;34625;47.176;27.548;2023-03-01T05:34:24;24.52;;;15.65;;
48805;SDS011;34625;47.176;27.548;2023-03-01T05:36:52;28.85;;;16.38;;
48805;SDS011;34625;47.176;27.548;2023-03-01T05:39:19;27.48;;;16.25;;
48805;SDS011;34625;47.176;27.548;2023-03-01T05:41:52;28.63;;;16.55;;
48805;SDS011;34625;47.176;27.548;2023-03-01T05:44:19;26.95;;;17.23;;
48805;SDS011;34625;47.176;27.548;2023-03-01T05:46:46;24.42;;;15.80;;
48805;SDS011;34625;47.176;27.548;2023-03-01T05:49:13;27.52;;;16.17;;
48805;SDS011;34625;47.176;27.548;2023-03-01T05:51:39;30.25;;;16.88;;
48805;SDS011;34625;47.176;27.548;2023-03-01T05:54:06;31.17;;;16.23;;
48805;SDS011;34625;47.176;27.548;2023-03-01T05:56:33;24.13;;;14.98;;
48805;SDS011;34625;47.176;27.548;2023-03-01T05:59:00;22.38;;;14.10;;
48805;SDS011;34625;47.176;27.548;2023-03-01T06:01:26;26.05;;;15.93;;
48805;SDS011;34625;47.176;27.548;2023-03-01T06:03:53;22.77;;;14.02;;
48805;SDS011;34625;47.176;27.548;2023-03-01T06:06:19;28.05;;;15.98;;
48805;SDS011;34625;47.176;27.548;2023-03-01T06:08:44;27.48;;;16.20;;
48805;SDS011;34625;47.176;27.548;2023-03-01T06:11:10;28.80;;;16.67;;
48805;SDS011;34625;47.176;27.548;2023-03-01T06:13:36;26.88;;;15.23;;
48805;SDS011;34625;47.176;27.548;2023-03-01T06:16:06;30.05;;;16.35;;
48805;SDS011;34625;47.176;27.548;2023-03-01T06:18:32;25.65;;;15.48;;
48805;SDS011;34625;47.176;27.548;2023-03-01T06:20:58;24.17;;;14.60;;
48805;SDS011;34625;47.176;27.548;2023-03-01T06:23:25;29.25;;;14.65;;
48805;SDS011;34625;47.176;27.548;2023-03-01T06:25:51;25.10;;;14.68;;
48805;SDS011;34625;47.176;27.548;2023-03-01T06:28:17;27.33;;;14.30;;
48805;SDS011;34625;47.176;27.548;2023-03-01T06:30:43;24.15;;;16.50;;
48805;SDS011;34625;47.176;27.548;2023-03-01T06:33:09;25.80;;;16.67;;
48805;SDS011;34625;47.176;27.548;2023-03-01T06:35:35;20.05;;;12.75;;
48805;SDS011;34625;47.176;27.548;2023-03-01T06:38:02;18.33;;;11.75;;
48805;SDS011;34625;47.176;27.548;2023-03-01T06:40:29;19.83;;;12.57;;
48805;SDS011;34625;47.176;27.548;2023-03-01T06:42:56;22.60;;;13.43;;
48805;SDS011;34625;47.176;27.548;2023-03-01T06:45:23;21.83;;;14.48;;
48805;SDS011;34625;47.176;27.548;2023-03-01T06:47:50;22.00;;;13.88;;
48805;SDS011;34625;47.176;27.548;2023-03-01T06:50:16;23.88;;;14.82;;
48805;SDS011;34625;47.176;27.548;2023-03-01T06:52:43;20.75;;;12.82;;
48805;SDS011;34625;47.176;27.548;2023-03-01T06:55:10;20.65;;;14.98;;
48805;SDS011;34625;47.176;27.548;2023-03-01T06:57:37;20.27;;;16.20;;
48805;SDS011;34625;47.176;27.548;2023-03-01T07:00:04;26.00;;;15.50;;
48805;SDS011;34625;47.176;27.548;2023-03-01T07:02:31;20.35;;;14.43;;
48805;SDS011;34625;47.176;27.548;2023-03-01T07:04:57;22.70;;;15.07;;
48805;SDS011;34625;47.176;27.548;2023-03-01T07:07:23;22.15;;;15.07;;
48805;SDS011;34625;47.176;27.548;2023-03-01T07:09:49;1.58;;;1.48;;
48805;SDS011;34625;47.176;27.548;2023-03-01T07:12:15;14.13;;;6.82;;
48805;SDS011;34625;47.176;27.548;2023-03-01T07:14:43;2.20;;;2.05;;
48805;SDS011;34625;47.176;27.548;2023-03-01T07:17:09;6.43;;;3.08;;
48805;SDS011;34625;47.176;27.548;2023-03-01T07:19:35;14.00;;;7.95;;
48805;SDS011;34625;47.176;27.548;2023-03-01T07:22:02;4.38;;;3.28;;
48805;SDS011;34625;47.176;27.548;2023-03-01T07:24:29;6.78;;;4.10;;
48805;SDS011;34625;47.176;27.548;2023-03-01T07:26:55;10.85;;;7.32;;
48805;SDS011;34625;47.176;27.548;2023-03-01T07:29:21;20.40;;;12.82;;
48805;SDS011;34625;47.176;27.548;2023-03-01T07:31:47;7.97;;;5.25;;
48805;SDS011;34625;47.176;27.548;2023-03-01T07:34:13;7.28;;;4.95;;
48805;SDS011;34625;47.176;27.548;2023-03-01T07:36:39;14.25;;;7.07;;
48805;SDS011;34625;47.176;27.548;2023-03-01T07:39:09;3.00;;;2.08;;
48805;SDS011;34625;47.176;27.548;2023-03-01T07:41:36;5.65;;;4.22;;
48805;SDS011;34625;47.176;27.548;2023-03-01T07:44:02;18.63;;;10.00;;
48805;SDS011;34625;47.176;27.548;2023-03-01T07:46:28;22.70;;;13.82;;
48805;SDS011;34625;47.176;27.548;2023-03-01T07:48:54;27.63;;;15.57;;
48805;SDS011;34625;47.176;27.548;2023-03-01T07:51:20;25.90;;;15.75;;
48805;SDS011;34625;47.176;27.548;2023-03-01T07:53:46;25.75;;;15.32;;
48805;SDS011;34625;47.176;27.548;2023-03-01T07:56:13;29.40;;;15.63;;
48805;SDS011;34625;47.176;27.548;2023-03-01T07:58:43;24.40;;;15.13;;
48805;SDS011;34625;47.176;27.548;2023-03-01T08:01:11;25.88;;;14.85;;
48805;SDS011;34625;47.176;27.548;2023-03-01T08:03:38;21.70;;;13.32;;
48805;SDS011;34625;47.176;27.548;2023-03-01T08:06:05;24.08;;;13.65;;
48805;SDS011;34625;47.176;27.548;2023-03-01T08:08:33;23.55;;;13.85;;
48805;SDS011;34625;47.176;27.548;2023-03-01T08:10:59;25.88;;;13.80;;
48805;SDS011;34625;47.176;27.548;2023-03-01T08:13:27;20.67;;;12.73;;
48805;SDS011;34625;47.176;27.548;2023-03-01T08:15:53;23.92;;;13.40;;
48805;SDS011;34625;47.176;27.548;2023-03-01T08:18:20;25.88;;;14.13;;
48805;SDS011;34625;47.176;27.548;2023-03-01T08:20:46;24.90;;;14.55;;
48805;SDS011;34625;47.176;27.548;2023-03-01T08:23:12;22.92;;;14.45;;
48805;SDS011;34625;47.176;27.548;2023-03-01T08:25:39;22.80;;;14.10;;
48805;SDS011;34625;47.176;27.548;2023-03-01T08:28:05;24.23;;;14.35;;
48805;SDS011;34625;47.176;27.548;2023-03-01T08:30:31;22.70;;;13.55;;
48805;SDS011;34625;47.176;27.548;2023-03-01T08:32:57;25.85;;;13.35;;
48805;SDS011;34625;47.176;27.548;2023-03-01T08:35:23;22.02;;;13.45;;
48805;SDS011;34625;47.176;27.548;2023-03-01T08:37:49;23.38;;;12.63;;
48805;SDS011;34625;47.176;27.548;2023-03-01T08:40:15;26.75;;;13.18;;
48805;SDS011;34625;47.176;27.548;2023-03-01T08:42:41;21.85;;;13.73;;
48805;SDS011;34625;47.176;27.548;2023-03-01T08:45:09;22.55;;;13.23;;
48805;SDS011;34625;47.176;27.548;2023-03-01T08:47:36;24.15;;;11.95;;
48805;SDS011;34625;47.176;27.548;2023-03-01T08:50:02;20.05;;;11.73;;
48805;SDS011;34625;47.176;27.548;2023-03-01T08:52:29;21.75;;;11.70;;
48805;SDS011;34625;47.176;27.548;2023-03-01T08:54:58;20.90;;;12.65;;
48805;SDS011;34625;47.176;27.548;2023-03-01T08:57:26;22.67;;;12.55;;
48805;SDS011;34625;47.176;27.548;2023-03-01T08:59:52;22.27;;;12.63;;
48805;SDS011;34625;47.176;27.548;2023-03-01T09:02:21;20.75;;;10.77;;
48805;SDS011;34625;47.176;27.548;2023-03-01T09:04:47;18.85;;;10.88;;
48805;SDS011;34625;47.176;27.548;2023-03-01T09:07:13;19.05;;;11.13;;
48805;SDS011;34625;47.176;27.548;2023-03-01T09:09:39;21.25;;;11.50;;
48805;SDS011;34625;47.176;27.548;2023-03-01T09:12:05;22.73;;;11.35;;
48805;SDS011;34625;47.176;27.548;2023-03-01T09:14:31;19.08;;;11.85;;
48805;SDS011;34625;47.176;27.548;2023-03-01T09:16:57;44.00;;;17.27;;
48805;SDS011;34625;47.176;27.548;2023-03-01T09:19:23;20.40;;;11.95;;
48805;SDS011;34625;47.176;27.548;2023-03-01T09:21:49;17.25;;;10.18;;
48805;SDS011;34625;47.176;27.548;2023-03-01T09:24:21;17.17;;;10.63;;
48805;SDS011;34625;47.176;27.548;2023-03-01T09:26:49;20.60;;;9.57;;
48805;SDS011;34625;47.176;27.548;2023-03-01T09:29:18;17.65;;;10.77;;
48805;SDS011;34625;47.176;27.548;2023-03-01T09:31:44;16.92;;;9.90;;
48805;SDS011;34625;47.176;27.548;2023-03-01T09:34:10;17.23;;;10.80;;
48805;SDS011;34625;47.176;27.548;2023-03-01T09:36:36;19.90;;;9.50;;
48805;SDS011;34625;47.176;27.548;2023-03-01T09:39:02;14.38;;;9.27;;
48805;SDS011;34625;47.176;27.548;2023-03-01T09:41:45;16.45;;;10.07;;
48805;SDS011;34625;47.176;27.548;2023-03-01T09:47:00;13.70;;;8.38;;
48805;SDS011;34625;47.176;27.548;2023-03-01T09:49:28;14.57;;;8.38;;
48805;SDS011;34625;47.176;27.548;2023-03-01T09:52:15;12.32;;;7.22;;
48805;SDS011;34625;47.176;27.548;2023-03-01T09:54:57;11.38;;;6.93;;
48805;SDS011;34625;47.176;27.548;2023-03-01T09:57:28;12.50;;;7.90;;
48805;SDS011;34625;47.176;27.548;2023-03-01T10:05:41;11.93;;;8.02;;
48805;SDS011;34625;47.176;27.548;2023-03-01T10:11:02;15.50;;;7.90;;
48805;SDS011;34625;47.176;27.548;2023-03-01T10:13:33;13.82;;;8.20;;
48805;SDS011;34625;47.176;27.548;2023-03-01T10:18:42;10.27;;;6.85;;
48805;SDS011;34625;47.176;27.548;2023-03-01T10:21:14;11.93;;;6.35;;
48805;SDS011;34625;47.176;27.548;2023-03-01T10:23:43;11.27;;;7.03;;
48805;SDS011;34625;47.176;27.548;2023-03-01T10:28:49;12.73;;;8.07;;
48805;SDS011;34625;47.176;27.548;2023-03-01T10:31:27;16.38;;;6.85;;
48805;SDS011;34625;47.176;27.548;2023-03-01T10:36:49;11.25;;;7.18;;
48805;SDS011;34625;47.176;27.548;2023-03-01T10:39:18;10.63;;;6.20;;
48805;SDS011;34625;47.176;27.548;2023-03-01T10:42:19;10.57;;;6.82;;
48805;SDS011;34625;47.176;27.548;2023-03-01T10:45:16;16.00;;;8.15;;
48805;SDS011;34625;47.176;27.548;2023-03-01T10:53:29;11.40;;;5.85;;
48805;SDS011;34625;47.176;27.548;2023-03-01T10:56:10;10.35;;;5.72;;
48805;SDS011;34625;47.176;27.548;2023-03-01T10:59:03;13.57;;;6.30;;
48805;SDS011;34625;47.176;27.548;2023-03-01T11:01:29;11.85;;;6.60;;
48805;SDS011;34625;47.176;27.548;2023-03-01T11:06:32;10.13;;;6.47;;
48805;SDS011;34625;47.176;27.548;2023-03-01T11:09:15;9.55;;;6.28;;
48805;SDS011;34625;47.176;27.548;2023-03-01T11:11:44;14.57;;;7.93;;
48805;SDS011;34625;47.176;27.548;2023-03-01T11:14:18;18.35;;;10.20;;
48805;SDS011;34625;47.176;27.548;2023-03-01T11:16:49;16.40;;;7.78;;
48805;SDS011;34625;47.176;27.548;2023-03-01T11:19:27;14.18;;;7.75;;
48805;SDS011;34625;47.176;27.548;2023-03-01T11:24:40;7.13;;;5.35;;
48805;SDS011;34625;47.176;27.548;2023-03-01T11:27:10;7.63;;;5.75;;
48805;SDS011;34625;47.176;27.548;2023-03-01T11:30:05;10.45;;;6.65;;
48805;SDS011;34625;47.176;27.548;2023-03-01T11:32:36;14.30;;;6.65;;
48805;SDS011;34625;47.176;27.548;2023-03-01T11:35:10;11.68;;;6.45;;
48805;SDS011;34625;47.176;27.548;2023-03-01T11:40:21;10.73;;;7.45;;
48805;SDS011;34625;47.176;27.548;2023-03-01T11:45:16;13.88;;;6.05;;
48805;SDS011;34625;47.176;27.548;2023-03-01T11:47:46;10.45;;;6.18;;
48805;SDS011;34625;47.176;27.548;2023-03-01T11:50:30;12.18;;;6.68;;
48805;SDS011;34625;47.176;27.548;2023-03-01T12:04:11;10.23;;;5.95;;
48805;SDS011;34625;47.176;27.548;2023-03-01T12:07:03;11.13;;;6.20;;
48805;SDS011;34625;47.176;27.548;2023-03-01T12:23:34;8.82;;;6.90;;
48805;SDS011;34625;47.176;27.548;2023-03-01T12:31:35;11.85;;;6.82;;
48805;SDS011;34625;47.176;27.548;2023-03-01T12:42:12;11.93;;;7.70;;
48805;SDS011;34625;47.176;27.548;2023-03-01T12:44:57;9.65;;;7.18;;
48805;SDS011;34625;47.176;27.548;2023-03-01T12:50:28;11.00;;;7.85;;
48805;SDS011;34625;47.176;27.548;2023-03-01T12:53:01;11.55;;;8.48;;
48805;SDS011;34625;47.176;27.548;2023-03-01T12:58:19;11.57;;;7.63;;
48805;SDS011;34625;47.176;27.548;2023-03-01T13:06:44;11.32;;;7.20;;
48805;SDS011;34625;47.176;27.548;2023-03-01T13:17:47;14.05;;;7.13;;
48805;SDS011;34625;47.176;27.548;2023-03-01T13:20:29;16.75;;;7.55;;
48805;SDS011;34625;47.176;27.548;2023-03-01T13:28:36;7.85;;;5.47;;
48805;SDS011;34625;47.176;27.548;2023-03-01T13:38:57;10.95;;;7.30;;
48805;SDS011;34625;47.176;27.548;2023-03-01T13:47:04;10.55;;;7.50;;
48805;SDS011;34625;47.176;27.548;2023-03-01T13:52:40;13.07;;;6.93;;
48805;SDS011;34625;47.176;27.548;2023-03-01T13:57:48;11.32;;;6.72;;
48805;SDS011;34625;47.176;27.548;2023-03-01T14:05:36;11.23;;;7.22;;
48805;SDS011;34625;47.176;27.548;2023-03-01T14:08:03;9.40;;;6.05;;
48805;SDS011;34625;47.176;27.548;2023-03-01T14:10:41;12.15;;;7.93;;
48805;SDS011;34625;47.176;27.548;2023-03-01T14:21:46;10.25;;;7.22;;
48805;SDS011;34625;47.176;27.548;2023-03-01T14:24:20;16.27;;;8.05;;
48805;SDS011;34625;47.176;27.548;2023-03-01T14:26:47;11.32;;;7.40;;
48805;SDS011;34625;47.176;27.548;2023-03-01T14:29:26;11.95;;;7.68;;
48805;SDS011;34625;47.176;27.548;2023-03-01T14:32:19;12.85;;;8.32;;
48805;SDS011;34625;47.176;27.548;2023-03-01T14:34:49;11.48;;;6.85;;
48805;SDS011;34625;47.176;27.548;2023-03-01T14:37:19;9.98;;;7.43;;
48805;SDS011;34625;47.176;27.548;2023-03-01T14:39:45;12.18;;;7.07;;
48805;SDS011;34625;47.176;27.548;2023-03-01T14:42:11;8.13;;;5.53;;
48805;SDS011;34625;47.176;27.548;2023-03-01T14:44:40;11.35;;;7.03;;
48805;SDS011;34625;47.176;27.548;2023-03-01T14:47:15;9.93;;;6.68;;
48805;SDS011;34625;47.176;27.548;2023-03-01T14:49:49;11.13;;;6.82;;
48805;SDS011;34625;47.176;27.548;2023-03-01T14:52:22;16.63;;;8.38;;
48805;SDS011;34625;47.176;27.548;2023-03-01T14:54:54;10.82;;;7.47;;
48805;SDS011;34625;47.176;27.548;2023-03-01T14:57:22;12.18;;;8.07;;
48805;SDS011;34625;47.176;27.548;2023-03-01T14:59:51;10.95;;;7.55;;
48805;SDS011;34625;47.176;27.548;2023-03-01T15:02:20;16.52;;;7.70;;
48805;SDS011;34625;47.176;27.548;2023-03-01T15:04:50;14.02;;;8.10;;
48805;SDS011;34625;47.176;27.548;2023-03-01T15:07:19;12.25;;;8.13;;
48805;SDS011;34625;47.176;27.548;2023-03-01T15:09:55;14.48;;;9.05;;
48805;SDS011;34625;47.176;27.548;2023-03-01T15:14:55;13.00;;;8.50;;
48805;SDS011;34625;47.176;27.548;2023-03-01T15:17:31;12.27;;;8.00;;
48805;SDS011;34625;47.176;27.548;2023-03-01T15:20:00;13.35;;;8.45;;
48805;SDS011;34625;47.176;27.548;2023-03-01T15:22:29;13.57;;;7.93;;
48805;SDS011;34625;47.176;27.548;2023-03-01T15:24:55;12.48;;;8.35;;
48805;SDS011;34625;47.176;27.548;2023-03-01T15:27:22;10.55;;;6.45;;
48805;SDS011;34625;47.176;27.548;2023-03-01T15:29:55;10.50;;;7.93;;
48805;SDS011;34625;47.176;27.548;2023-03-01T15:32:30;12.93;;;8.82;;
48805;SDS011;34625;47.176;27.548;2023-03-01T15:34:57;14.27;;;9.63;;
48805;SDS011;34625;47.176;27.548;2023-03-01T15:37:46;12.50;;;9.27;;
48805;SDS011;34625;47.176;27.548;2023-03-01T15:40:24;16.85;;;9.63;;
48805;SDS011;34625;47.176;27.548;2023-03-01T15:43:06;16.85;;;9.40;;
48805;SDS011;34625;47.176;27.548;2023-03-01T15:46:00;14.75;;;9.05;;
48805;SDS011;34625;47.176;27.548;2023-03-01T15:48:27;13.20;;;9.05;;
48805;SDS011;34625;47.176;27.548;2023-03-01T15:50:56;13.43;;;7.60;;
48805;SDS011;34625;47.176;27.548;2023-03-01T15:53:24;15.60;;;10.00;;
48805;SDS011;34625;47.176;27.548;2023-03-01T15:55:52;13.65;;;10.13;;
48805;SDS011;34625;47.176;27.548;2023-03-01T15:58:19;12.52;;;10.18;;
48805;SDS011;34625;47.176;27.548;2023-03-01T16:00:48;15.35;;;9.25;;
48805;SDS011;34625;47.176;27.548;2023-03-01T16:03:16;13.65;;;7.93;;
48805;SDS011;34625;47.176;27.548;2023-03-01T16:05:46;17.23;;;9.95;;
48805;SDS011;34625;47.176;27.548;2023-03-01T16:08:14;16.67;;;10.45;;
48805;SDS011;34625;47.176;27.548;2023-03-01T16:10:41;14.65;;;10.05;;
48805;SDS011;34625;47.176;27.548;2023-03-01T16:13:10;12.73;;;9.13;;
48805;SDS011;34625;47.176;27.548;2023-03-01T16:15:37;15.13;;;10.63;;
48805;SDS011;34625;47.176;27.548;2023-03-01T16:18:04;15.88;;;11.27;;
48805;SDS011;34625;47.176;27.548;2023-03-01T16:20:31;17.02;;;11.68;;
48805;SDS011;34625;47.176;27.548;2023-03-01T16:22:58;20.95;;;11.77;;
48805;SDS011;34625;47.176;27.548;2023-03-01T16:25:28;19.60;;;12.95;;
48805;SDS011;34625;47.176;27.548;2023-03-01T16:27:54;19.23;;;12.13;;
48805;SDS011;34625;47.176;27.548;2023-03-01T16:30:22;20.55;;;12.93;;
48805;SDS011;34625;47.176;27.548;2023-03-01T16:32:49;16.25;;;9.90;;
48805;SDS011;34625;47.176;27.548;2023-03-01T16:35:16;17.83;;;10.90;;
48805;SDS011;34625;47.176;27.548;2023-03-01T16:37:45;15.75;;;9.93;;
48805;SDS011;34625;47.176;27.548;2023-03-01T16:40:16;18.83;;;11.18;;
48805;SDS011;34625;47.176;27.548;2023-03-01T16:42:46;19.58;;;10.30;;
48805;SDS011;34625;47.176;27.548;2023-03-01T16:45:13;19.23;;;10.60;;
48805;SDS011;34625;47.176;27.548;2023-03-01T16:47:39;20.67;;;13.48;;
48805;SDS011;34625;47.176;27.548;2023-03-01T16:50:05;27.75;;;16.48;;
48805;SDS011;34625;47.176;27.548;2023-03-01T16:52:31;28.75;;;16.80;;
48805;SDS011;34625;47.176;27.548;2023-03-01T16:54:59;22.42;;;15.13;;
48805;SDS011;34625;47.176;27.548;2023-03-01T16:57:25;26.77;;;16.38;;
48805;SDS011;34625;47.176;27.548;2023-03-01T16:59:54;24.42;;;16.52;;
48805;SDS011;34625;47.176;27.548;2023-03-01T17:02:20;21.70;;;14.38;;
48805;SDS011;34625;47.176;27.548;2023-03-01T17:04:53;23.02;;;15.98;;
48805;SDS011;34625;47.176;27.548;2023-03-01T17:07:20;20.63;;;14.40;;
48805;SDS011;34625;47.176;27.548;2023-03-01T17:09:46;19.52;;;13.18;;